Time;durP1;ratioP1;P1;durP2;ratioP2;P2;SDS_P1;SDS_P2;PMS_P1;PMS_P2;Temp;Humidity;BMP_temperature;BMP_pressure;BME280_temperature;BME280_humidity;BME280_pressure;Samples;Min_cycle;Max_cycle;Signal;HPM_P1;HPM_P2
2022/04/29 00:00:51;;;;;;;7.40;5.10;;;;;;;3.55;79.51;100509.36;103517;1302;25095;-29
2022/04/29 00:03:21;;;;;;;11.90;6.60;;;;;;;3.56;79.18;100517.13;103593;1303;22499;-25
2022/04/29 00:05:51;;;;;;;6.50;4.80;;;;;;;3.54;79.42;100516.02;103539;1303;25022;-27
2022/04/29 00:08:20;;;;;;;10.00;4.40;;;;;;;3.49;78.57;100516.37;103580;1303;23753;-28
2022/04/29 00:10:49;;;;;;;8.40;4.90;;;;;;;3.48;79.14;100518.25;103537;1303;23863;-25
2022/04/29 00:13:18;;;;;;;9.30;5.60;;;;;;;3.49;78.96;100517.45;103503;1303;24360;-25
2022/04/29 00:15:47;;;;;;;10.40;5.50;;;;;;;3.49;79.87;100517.58;103597;1303;22626;-29
2022/04/29 00:18:16;;;;;;;10.10;4.90;;;;;;;3.42;78.66;100514.64;103546;1303;22806;-25
2022/04/29 00:20:45;;;;;;;9.40;6.90;;;;;;;3.38;80.01;100514.27;103511;1303;24221;-30
2022/04/29 00:23:14;;;;;;;34.80;10.60;;;;;;;3.42;78.98;100514.86;103599;1303;25242;-28
2022/04/29 00:25:44;;;;;;;52.50;27.40;;;;;;;3.36;79.33;100512.14;103562;1303;22505;-28
2022/04/29 00:28:13;;;;;;;35.40;14.10;;;;;;;3.26;79.94;100518.59;103593;1301;22499;-30
2022/04/29 00:30:42;;;;;;;26.30;12.10;;;;;;;3.25;79.16;100520.45;103416;1303;25102;-27
2022/04/29 00:33:11;;;;;;;18.00;8.90;;;;;;;3.22;78.92;100519.44;103378;1303;22496;-28
2022/04/29 00:35:40;;;;;;;22.00;8.50;;;;;;;3.28;79.45;100512.09;103576;1303;24371;-27
2022/04/29 00:38:15;;;;;;;33.40;12.60;;;;;;;3.21;79.41;100513.64;103544;1303;22601;-28
2022/04/29 00:40:44;;;;;;;19.60;10.40;;;;;;;3.16;79.54;100511.46;103557;1303;22760;-28
2022/04/29 00:43:13;;;;;;;39.80;15.60;;;;;;;3.11;79.89;100506.33;103555;1303;25370;-25
2022/04/29 00:45:42;;;;;;;40.00;17.70;;;;;;;3.07;80.44;100507.00;103495;1303;22589;-29
2022/04/29 00:48:11;;;;;;;34.80;15.60;;;;;;;2.98;81.40;100517.11;103549;1303;24320;-25
2022/04/29 00:50:40;;;;;;;25.30;12.60;;;;;;;3.03;82.85;100508.88;103569;1303;22496;-28
2022/04/29 00:53:11;;;;;;;29.00;11.50;;;;;;;3.04;83.28;100513.98;103550;1303;24218;-26
2022/04/29 00:55:40;;;;;;;24.50;10.40;;;;;;;3.11;82.61;100514.65;103586;1303;22499;-29
2022/04/29 00:58:10;;;;;;;28.60;12.60;;;;;;;3.07;82.59;100514.30;103502;1303;22499;-28
2022/04/29 01:00:39;;;;;;;17.30;8.90;;;;;;;3.10;81.61;100509.76;103380;1303;23795;-28
2022/04/29 01:03:11;;;;;;;14.60;7.10;;;;;;;3.13;81.57;100507.23;103552;1303;24294;-30
2022/04/29 01:05:41;;;;;;;17.90;6.60;;;;;;;3.17;81.31;100509.10;103590;1303;25020;-28
2022/04/29 01:08:10;;;;;;;14.70;8.50;;;;;;;3.22;81.58;100509.38;103583;1303;23968;-28
2022/04/29 01:10:39;;;;;;;10.60;6.70;;;;;;;3.29;83.41;100513.94;103581;1303;23612;-25
2022/04/29 01:13:09;;;;;;;11.40;7.60;;;;;;;3.24;83.66;100503.69;103604;1303;22502;-29
2022/04/29 01:15:38;;;;;;;9.60;5.60;;;;;;;3.31;83.54;100498.01;103366;1303;25011;-28
2022/04/29 01:18:09;;;;;;;16.40;6.30;;;;;;;3.44;82.48;100496.99;103538;1303;22496;-25
2022/04/29 01:20:38;;;;;;;8.40;5.00;;;;;;;3.48;82.24;100493.68;103606;1303;24262;-26
2022/04/29 01:23:08;;;;;;;11.00;4.90;;;;;;;3.54;83.37;100495.67;103510;1303;25293;-30
2022/04/29 01:25:38;;;;;;;11.80;5.20;;;;;;;3.47;82.71;100494.25;103572;1303;22891;-27
2022/04/29 01:28:07;;;;;;;7.80;5.40;;;;;;;3.42;82.57;100491.52;103628;1303;22503;-28
2022/04/29 01:30:36;;;;;;;8.40;5.10;;;;;;;3.38;81.81;100489.02;103563;1303;22509;-25
2022/04/29 01:33:05;;;;;;;8.00;4.80;;;;;;;3.39;82.37;100486.91;103627;1303;22495;-30
2022/04/29 01:35:34;;;;;;;7.10;5.00;;;;;;;3.40;81.66;100483.64;103416;1303;23896;-28
2022/04/29 01:38:03;;;;;;;13.60;5.80;;;;;;;3.39;81.38;100485.84;103590;1303;22519;-25
2022/04/29 01:40:32;;;;;;;10.20;5.60;;;;;;;3.33;81.07;100481.02;103585;1303;22516;-30
2022/04/29 01:43:02;;;;;;;8.20;6.20;;;;;;;3.30;82.73;100480.63;103523;1303;24301;-27
2022/04/29 01:45:32;;;;;;;7.70;4.90;;;;;;;3.30;82.32;100477.25;103645;1303;24273;-27
2022/04/29 01:48:01;;;;;;;12.10;7.80;;;;;;;3.36;81.68;100477.30;103521;1303;22766;-28
2022/04/29 01:50:30;;;;;;;16.00;7.70;;;;;;;3.35;81.50;100476.64;103550;1303;22499;-28
2022/04/29 01:52:59;;;;;;;8.70;5.00;;;;;;;3.39;81.53;100475.59;103575;1303;24233;-29
2022/04/29 01:55:28;;;;;;;12.90;6.40;;;;;;;3.40;81.59;100474.61;103582;1303;23835;-26
2022/04/29 01:57:57;;;;;;;10.80;5.60;;;;;;;3.41;81.26;100472.48;103569;1303;22743;-28
2022/04/29 02:00:26;;;;;;;8.60;5.20;;;;;;;3.35;80.82;100467.83;103467;1303;26211;-25
2022/04/29 02:02:55;;;;;;;9.90;5.40;;;;;;;3.27;81.35;100468.39;103532;1303;23715;-25
2022/04/29 02:05:24;;;;;;;7.50;5.80;;;;;;;3.22;83.79;100472.55;103511;1303;23590;-27
2022/04/29 02:07:53;;;;;;;8.30;5.30;;;;;;;3.14;82.62;100465.21;103444;1303;22541;-29
2022/04/29 02:10:23;;;;;;;10.20;5.60;;;;;;;3.03;82.63;100472.84;103620;1303;23610;-28
2022/04/29 02:12:52;;;;;;;15.80;7.70;;;;;;;2.99;83.98;100473.49;103595;1303;25085;-28
2022/04/29 02:15:21;;;;;;;10.10;5.90;;;;;;;2.95;82.38;100470.28;103520;1303;24434;-28
2022/04/29 02:17:50;;;;;;;8.40;5.80;;;;;;;2.94;81.84;100469.29;103574;1303;22652;-30
2022/04/29 02:20:21;;;;;;;10.20;5.80;;;;;;;2.94;82.31;100473.38;103611;1303;24489;-28
2022/04/29 02:22:50;;;;;;;12.40;7.00;;;;;;;2.93;82.03;100474.36;103568;1303;26281;-25
2022/04/29 02:25:20;;;;;;;8.70;6.00;;;;;;;2.88;81.67;100468.19;103557;1303;23658;-31
2022/04/29 02:27:49;;;;;;;9.20;5.30;;;;;;;2.79;81.56;100460.52;103565;1303;23078;-28
2022/04/29 02:30:18;;;;;;;12.30;6.10;;;;;;;2.74;82.21;100462.55;103611;1303;24215;-26
2022/04/29 02:32:47;;;;;;;8.20;5.10;;;;;;;2.71;82.71;100464.23;103584;1303;23658;-25
2022/04/29 02:35:16;;;;;;;13.80;7.10;;;;;;;2.72;82.93;100468.21;103596;1303;22499;-26
2022/04/29 02:37:45;;;;;;;10.90;6.60;;;;;;;2.68;82.31;100466.88;103501;1303;24216;-29
2022/04/29 02:40:14;;;;;;;45.30;23.00;;;;;;;2.62;82.17;100470.77;103539;1303;24996;-26
2022/04/29 02:42:43;;;;;;;107.40;50.30;;;;;;;2.58;83.75;100473.39;103562;1303;22510;-29
2022/04/29 02:45:12;;;;;;;42.10;22.40;;;;;;;2.58;83.85;100475.84;103583;1303;24340;-25
2022/04/29 02:47:41;;;;;;;17.20;10.00;;;;;;;2.57;83.28;100473.80;103587;1303;22513;-26
2022/04/29 02:50:10;;;;;;;11.50;7.10;;;;;;;2.55;83.20;100471.30;103320;1303;24256;-25
2022/04/29 02:52:39;;;;;;;86.70;39.10;;;;;;;2.54;86.21;100474.88;103395;1303;24358;-29
2022/04/29 02:55:08;;;;;;;61.70;32.90;;;;;;;2.59;84.98;100475.61;103528;1303;24027;-26
2022/04/29 02:57:37;;;;;;;14.30;8.50;;;;;;;2.66;83.77;100470.80;103533;1303;22765;-29
2022/04/29 03:00:07;;;;;;;24.20;13.80;;;;;;;2.74;83.90;100468.19;103543;1303;22512;-29
2022/04/29 03:02:36;;;;;;;13.40;7.30;;;;;;;2.71;83.93;100468.23;103590;1303;22507;-25
2022/04/29 03:05:06;;;;;;;11.40;6.80;;;;;;;2.81;84.16;100470.84;103629;1303;24192;-25
2022/04/29 03:07:35;;;;;;;9.10;5.60;;;;;;;2.87;85.06;100470.23;103510;1301;25002;-25
2022/04/29 03:10:04;;;;;;;16.30;7.40;;;;;;;2.96;84.52;100470.77;103567;1303;24355;-31
2022/04/29 03:12:33;;;;;;;9.80;5.60;;;;;;;2.95;84.90;100470.80;103631;1303;23790;-28
2022/04/29 03:20:09;;;;;;;8.40;5.40;;;;;;;2.85;84.28;100465.59;103533;1302;24694;-26
2022/04/29 03:22:38;;;;;;;6.40;5.00;;;;;;;2.79;84.14;100466.96;103608;1303;26247;-26
2022/04/29 03:25:08;;;;;;;14.40;5.80;;;;;;;2.72;84.49;100465.90;103533;1303;24673;-24
2022/04/29 03:27:37;;;;;;;16.50;7.60;;;;;;;2.73;84.67;100464.01;103619;1303;22492;-28
2022/04/29 03:30:06;;;;;;;14.90;7.50;;;;;;;2.63;85.19;100466.58;103582;1303;24272;-27
2022/04/29 03:32:35;;;;;;;9.40;5.50;;;;;;;2.65;86.74;100474.27;103509;1303;23861;-25
2022/04/29 03:35:05;;;;;;;11.50;7.10;;;;;;;2.53;86.51;100471.95;103569;1303;22496;-25
2022/04/29 03:37:34;;;;;;;14.40;6.70;;;;;;;2.49;87.52;100476.36;103638;1303;22520;-28
2022/04/29 03:40:03;;;;;;;7.50;4.50;;;;;;;2.45;87.52;100472.09;103573;1303;22513;-28
2022/04/29 03:42:32;;;;;;;7.30;5.40;;;;;;;2.42;88.26;100477.42;103554;1303;25200;-27
2022/04/29 03:45:01;;;;;;;17.90;6.40;;;;;;;2.46;87.82;100473.41;103536;1303;24751;-24
2022/04/29 03:47:30;;;;;;;10.50;6.30;;;;;;;2.48;86.49;100469.73;103571;1303;23646;-25
2022/04/29 03:50:01;;;;;;;8.00;3.90;;;;;;;2.41;87.27;100479.98;103572;1302;24237;-29
2022/04/29 03:52:30;;;;;;;15.10;7.90;;;;;;;2.39;88.77;100486.52;103535;1303;24247;-29
2022/04/29 03:54:59;;;;;;;9.40;6.50;;;;;;;2.37;89.00;100486.63;103555;1301;22773;-28
2022/04/29 03:57:28;;;;;;;15.80;6.30;;;;;;;2.38;87.50;100486.02;103572;1303;24279;-28
2022/04/29 03:59:57;;;;;;;10.90;6.00;;;;;;;2.41;87.38;100488.97;103569;1303;24973;-27
2022/04/29 04:02:26;;;;;;;11.30;7.20;;;;;;;2.49;87.95;100490.17;103562;1302;22498;-25
2022/04/29 04:04:55;;;;;;;16.20;6.60;;;;;;;2.57;87.63;100487.58;103545;1303;23317;-29
2022/04/29 04:07:24;;;;;;;13.50;6.90;;;;;;;2.72;86.99;100481.12;103591;1303;25108;-31
2022/04/29 04:09:53;;;;;;;12.40;7.60;;;;;;;2.77;88.55;100481.78;103367;1303;24275;-28
2022/04/29 04:12:22;;;;;;;10.90;7.10;;;;;;;2.93;87.82;100483.21;103590;1303;24297;-25
2022/04/29 04:14:51;;;;;;;9.50;6.00;;;;;;;2.99;88.78;100487.27;103518;1303;23190;-28
2022/04/29 04:17:20;;;;;;;18.00;7.90;;;;;;;3.21;88.08;100483.96;103273;1303;499367;-27
2022/04/29 04:19:49;;;;;;;13.10;6.30;;;;;;;3.38;87.91;100485.23;103528;1303;23848;-28
2022/04/29 04:22:18;;;;;;;8.70;5.60;;;;;;;3.49;88.08;100488.94;103558;1302;24313;-25
2022/04/29 04:24:47;;;;;;;8.50;6.80;;;;;;;3.60;87.97;100483.44;103575;1303;22513;-25
2022/04/29 04:27:17;;;;;;;13.20;5.90;;;;;;;3.64;87.33;100488.30;103560;1303;24998;-25
2022/04/29 04:29:46;;;;;;;19.20;7.20;;;;;;;3.72;88.09;100490.42;103516;1303;24214;-28
2022/04/29 04:32:15;;;;;;;13.40;6.70;;;;;;;3.95;87.49;100493.73;103542;1303;24960;-25
2022/04/29 04:37:17;;;;;;;7.20;5.10;;;;;;;4.31;87.85;100493.69;103560;1303;23833;-28
2022/04/29 04:39:47;;;;;;;6.10;4.00;;;;;;;4.47;86.95;100498.20;103569;1303;24723;-29
2022/04/29 04:42:17;;;;;;;10.10;6.90;;;;;;;4.57;85.95;100505.63;103545;1303;25258;-25
2022/04/29 04:44:47;;;;;;;11.40;6.30;;;;;;;4.43;86.33;100503.43;103560;1303;24294;-27
2022/04/29 04:47:16;;;;;;;14.10;6.00;;;;;;;4.49;86.36;100507.25;103581;1303;24283;-28
2022/04/29 04:49:45;;;;;;;21.40;9.80;;;;;;;4.51;86.66;100507.92;103529;1303;22503;-29
2022/04/29 04:52:14;;;;;;;12.50;7.30;;;;;;;4.68;87.18;100504.23;103506;1303;23635;-29
2022/04/29 04:54:43;;;;;;;15.20;8.40;;;;;;;4.82;87.02;100506.02;103538;1303;23613;-28
2022/04/29 04:57:12;;;;;;;15.20;7.10;;;;;;;4.99;87.05;100505.29;103567;1303;23818;-25
2022/04/29 04:59:41;;;;;;;10.70;6.80;;;;;;;5.24;85.79;100504.01;103569;1303;24215;-28
2022/04/29 05:02:10;;;;;;;8.10;5.80;;;;;;;5.43;85.86;100502.83;103557;1303;22685;-28
2022/04/29 05:04:39;;;;;;;9.30;6.20;;;;;;;5.67;86.27;100508.48;103583;1303;22931;-27
2022/04/29 05:07:08;;;;;;;13.00;5.60;;;;;;;6.00;85.79;100513.21;103533;1303;22588;-29
2022/04/29 05:09:37;;;;;;;9.40;6.00;;;;;;;6.15;84.57;100515.13;103496;1303;24342;-27
2022/04/29 05:12:07;;;;;;;9.30;6.10;;;;;;;6.51;85.06;100515.41;103586;1303;24984;-29
2022/04/29 05:14:36;;;;;;;10.40;5.80;;;;;;;6.95;83.46;100523.52;103591;1303;23616;-25
2022/04/29 05:17:05;;;;;;;10.80;5.70;;;;;;;7.32;83.69;100524.80;103495;1303;22584;-25
2022/04/29 05:19:34;;;;;;;10.10;6.70;;;;;;;7.34;82.27;100528.34;103539;1303;24376;-29
2022/04/29 05:22:03;;;;;;;11.20;5.90;;;;;;;7.23;81.87;100529.94;103586;1302;24390;-28
2022/04/29 05:24:32;;;;;;;11.30;6.30;;;;;;;7.49;81.62;100521.80;103590;1303;24413;-25
2022/04/29 05:27:01;;;;;;;16.70;5.40;;;;;;;7.78;81.60;100522.48;103617;1303;24025;-28
2022/04/29 05:29:30;;;;;;;8.80;6.40;;;;;;;7.81;79.84;100533.04;103485;1303;25088;-30
2022/04/29 05:31:59;;;;;;;9.10;6.60;;;;;;;8.02;79.69;100532.60;103561;1303;24240;-25
2022/04/29 05:34:28;;;;;;;15.40;6.30;;;;;;;8.27;79.58;100530.95;103515;1303;24021;-25
2022/04/29 05:36:57;;;;;;;13.10;7.40;;;;;;;8.53;78.14;100533.73;103544;1303;23788;-30
2022/04/29 05:44:31;;;;;;;10.30;6.40;;;;;;;9.06;75.89;100528.89;103582;1303;24009;-31
2022/04/29 05:47:00;;;;;;;11.80;8.30;;;;;;;9.34;73.59;100532.91;103565;1303;25105;-27
2022/04/29 05:49:29;;;;;;;11.20;7.00;;;;;;;9.43;74.14;100531.95;103377;1303;23603;-30
2022/04/29 05:52:01;;;;;;;8.30;6.30;;;;;;;9.34;74.84;100533.05;103590;1303;24252;-28
2022/04/29 05:54:31;;;;;;;17.10;9.00;;;;;;;9.93;71.97;100533.44;103530;1303;24290;-29
2022/04/29 05:57:01;;;;;;;11.70;7.50;;;;;;;9.88;70.74;100535.75;103546;1303;24309;-31
2022/04/29 05:59:30;;;;;;;12.70;8.80;;;;;;;9.67;71.94;100539.05;103596;1303;24189;-28
2022/04/29 06:01:59;;;;;;;10.90;7.80;;;;;;;9.72;72.20;100545.33;103514;1303;22500;-25
2022/04/29 06:04:28;;;;;;;11.70;7.60;;;;;;;9.82;72.59;100539.97;103611;1303;24211;-25
2022/04/29 06:06:57;;;;;;;16.50;6.90;;;;;;;10.53;70.04;100542.02;103637;1302;24391;-28
2022/04/29 06:09:26;;;;;;;10.80;6.90;;;;;;;10.36;67.38;100547.99;103531;1303;24208;-31
2022/04/29 06:11:56;;;;;;;16.50;8.60;;;;;;;10.14;67.80;100549.09;103572;1303;22509;-29
2022/04/29 06:14:25;;;;;;;15.40;7.60;;;;;;;10.57;67.73;100548.49;103577;1302;23135;-28
2022/04/29 06:16:54;;;;;;;15.90;8.40;;;;;;;10.56;67.13;100555.11;103672;1303;23608;-29
2022/04/29 06:19:23;;;;;;;17.60;8.50;;;;;;;10.37;67.70;100551.45;103560;1303;23756;-30
2022/04/29 06:21:52;;;;;;;16.00;6.60;;;;;;;10.46;68.35;100556.23;103547;1303;25159;-29
2022/04/29 06:24:21;;;;;;;14.10;8.10;;;;;;;10.49;66.77;100559.75;103559;1303;22533;-31
2022/04/29 06:26:49;;;;;;;10.80;7.60;;;;;;;10.30;67.35;100562.27;103540;1303;25047;-26
2022/04/29 06:29:18;;;;;;;12.10;7.00;;;;;;;10.27;67.96;100560.27;103582;1303;24365;-26
2022/04/29 06:31:47;;;;;;;15.30;8.50;;;;;;;10.47;67.84;100564.73;103572;1303;25115;-29
2022/04/29 06:34:16;;;;;;;15.60;7.70;;;;;;;10.36;68.04;100561.17;103430;1303;24314;-26
2022/04/29 06:36:45;;;;;;;16.70;9.10;;;;;;;10.47;68.39;100561.26;103598;1303;22931;-29
2022/04/29 06:39:14;;;;;;;15.90;8.10;;;;;;;10.48;69.17;100563.30;103537;1303;23501;-29
2022/04/29 06:41:43;;;;;;;19.20;8.30;;;;;;;10.69;69.27;100560.29;103566;1303;25117;-26
2022/04/29 06:44:12;;;;;;;10.60;6.60;;;;;;;11.06;66.16;100562.16;103463;1303;24252;-29
2022/04/29 06:46:42;;;;;;;22.30;7.30;;;;;;;10.86;67.05;100565.38;103520;1303;22645;-29
2022/04/29 06:49:11;;;;;;;9.20;7.50;;;;;;;11.12;67.48;100567.73;103548;1301;24222;-27
2022/04/29 06:51:40;;;;;;;13.00;8.00;;;;;;;11.56;64.97;100562.95;103514;1303;22514;-25
2022/04/29 06:54:09;;;;;;;10.50;8.00;;;;;;;11.75;64.19;100559.54;103552;1303;23803;-28
2022/04/29 06:56:38;;;;;;;13.10;7.50;;;;;;;12.06;63.52;100559.05;103531;1303;22501;-26
2022/04/29 06:59:07;;;;;;;11.90;7.60;;;;;;;12.20;62.26;100559.54;103607;1303;24372;-28
2022/04/29 07:01:36;;;;;;;10.30;6.60;;;;;;;12.72;61.14;100557.55;103479;1303;24232;-28
2022/04/29 07:04:05;;;;;;;8.50;6.20;;;;;;;12.72;61.31;100558.76;103628;1303;22956;-30
2022/04/29 07:06:34;;;;;;;8.60;6.50;;;;;;;13.01;59.37;100563.08;103580;1303;23749;-27
2022/04/29 07:09:04;;;;;;;11.30;7.50;;;;;;;13.09;58.48;100567.86;103458;1303;22505;-30
2022/04/29 07:11:33;;;;;;;8.60;5.40;;;;;;;13.21;57.36;100564.25;103537;1303;23948;-25
2022/04/29 07:14:02;;;;;;;13.70;6.30;;;;;;;13.59;58.74;100565.18;103593;1302;22515;-24
2022/04/29 07:16:31;;;;;;;9.20;6.20;;;;;;;13.96;57.95;100561.06;103549;1303;22507;-24
2022/04/29 07:19:00;;;;;;;7.80;5.90;;;;;;;14.18;56.88;100561.60;103623;1303;24307;-24
2022/04/29 07:21:29;;;;;;;16.40;8.20;;;;;;;14.43;55.39;100565.52;103561;1303;22616;-25
2022/04/29 07:23:59;;;;;;;14.50;5.80;;;;;;;14.22;54.74;100567.38;103637;1303;24291;-28
2022/04/29 07:26:28;;;;;;;17.20;6.60;;;;;;;14.39;53.99;100560.77;103518;1303;22892;-28
2022/04/29 07:28:57;;;;;;;9.20;5.50;;;;;;;14.22;55.89;100561.60;103612;1303;24250;-27
2022/04/29 07:31:26;;;;;;;9.50;5.50;;;;;;;14.36;55.81;100561.87;103620;1303;22830;-31
2022/04/29 07:33:55;;;;;;;10.80;5.90;;;;;;;14.96;55.06;100561.84;103689;1302;25051;-27
2022/04/29 07:44:01;;;;;;;8.00;5.00;;;;;;;15.34;52.54;100562.05;103538;1303;24976;-27
2022/04/29 07:46:30;;;;;;;9.00;4.90;;;;;;;15.91;51.41;100560.84;103569;1303;24342;-25
2022/04/29 07:48:59;;;;;;;8.50;5.40;;;;;;;16.13;48.62;100557.66;103582;1303;24301;-24
2022/04/29 07:51:28;;;;;;;10.80;5.80;;;;;;;15.77;48.50;100561.98;103510;1303;23601;-25
2022/04/29 07:53:57;;;;;;;5.30;4.00;;;;;;;15.32;50.22;100565.63;103535;1303;22502;-23
2022/04/29 07:56:26;;;;;;;10.90;6.10;;;;;;;15.69;50.68;100556.52;103528;1303;24390;-25
2022/04/29 07:58:56;;;;;;;7.30;5.10;;;;;;;16.29;49.59;100551.95;103553;1303;23858;-28
2022/04/29 08:01:26;;;;;;;9.90;4.30;;;;;;;16.58;48.85;100550.39;103562;1303;24248;-29
2022/04/29 08:03:55;;;;;;;8.80;3.50;;;;;;;17.12;48.69;100548.98;103582;1303;23957;-25
2022/04/29 08:06:26;;;;;;;6.90;4.50;;;;;;;17.39;46.18;100548.48;103602;1303;22570;-28
2022/04/29 08:08:55;;;;;;;2.90;2.60;;;;;;;17.32;46.73;100544.81;103554;1303;24319;-25
2022/04/29 08:11:24;;;;;;;3.00;2.60;;;;;;;16.35;42.28;100550.65;103521;1303;22616;-25
2022/04/29 08:13:56;;;;;;;4.90;2.80;;;;;;;16.93;43.60;100542.72;103591;1303;22651;-29
2022/04/29 08:16:25;;;;;;;6.50;2.20;;;;;;;17.25;42.96;100539.27;103578;1303;24323;-29
2022/04/29 08:18:55;;;;;;;1.90;1.70;;;;;;;17.23;42.48;100539.86;103534;1303;24216;-25
2022/04/29 08:21:24;;;;;;;4.30;1.70;;;;;;;17.32;42.02;100540.78;103623;1303;25255;-27
2022/04/29 08:23:53;;;;;;;3.90;2.20;;;;;;;17.39;40.56;100543.28;103645;1303;23780;-26
2022/04/29 08:26:22;;;;;;;4.00;1.40;;;;;;;17.58;41.28;100535.96;103546;1303;23955;-30
2022/04/29 08:28:51;;;;;;;1.50;0.80;;;;;;;17.14;39.13;100540.81;103570;1303;23608;-25
2022/04/29 08:31:21;;;;;;;1.60;1.20;;;;;;;16.42;37.90;100539.96;103540;1303;24369;-28
2022/04/29 08:33:50;;;;;;;3.40;1.20;;;;;;;17.13;39.58;100536.52;103612;1303;22509;-32
2022/04/29 08:36:19;;;;;;;6.40;2.00;;;;;;;17.37;38.49;100539.03;103628;1302;24022;-29
2022/04/29 08:38:48;;;;;;;2.20;1.60;;;;;;;16.94;38.78;100537.35;103532;1303;22902;-29
2022/04/29 08:41:18;;;;;;;2.20;1.50;;;;;;;17.12;38.84;100533.87;103541;1302;24237;-29
2022/04/29 08:43:48;;;;;;;3.00;1.90;;;;;;;16.85;39.33;100532.30;103521;1303;24250;-25
2022/04/29 08:46:20;;;;;;;2.30;1.90;;;;;;;17.02;38.88;100525.79;103578;1303;24197;-29
2022/04/29 08:48:50;;;;;;;2.20;1.50;;;;;;;17.27;39.11;100524.70;103555;1303;23605;-25
2022/04/29 08:51:19;;;;;;;2.80;1.30;;;;;;;17.46;38.63;100522.42;103553;1301;24358;-25
2022/04/29 08:53:48;;;;;;;2.80;1.80;;;;;;;17.67;38.01;100521.25;103542;1303;23911;-25
2022/04/29 08:58:50;;;;;;;1.80;1.20;;;;;;;17.76;39.14;100520.92;103570;1303;23900;-28
2022/04/29 09:01:21;;;;;;;3.70;1.50;;;;;;;17.84;38.32;100518.23;103561;1301;23609;-24
2022/04/29 09:03:51;;;;;;;2.40;1.20;;;;;;;18.49;36.93;100517.95;103576;1303;25017;-25
2022/04/29 09:06:22;;;;;;;1.40;1.20;;;;;;;18.43;36.60;100514.73;103619;1303;24370;-28
2022/04/29 09:08:51;;;;;;;1.90;1.10;;;;;;;17.72;36.59;100515.48;103547;1303;25232;-25
2022/04/29 09:11:23;;;;;;;8.90;1.60;;;;;;;17.96;36.93;100518.32;103566;1303;24211;-25
2022/04/29 09:13:52;;;;;;;3.30;2.00;;;;;;;18.19;36.28;100516.66;103581;1303;24416;-29
2022/04/29 09:16:21;;;;;;;2.70;1.60;;;;;;;18.29;36.81;100512.36;103506;1303;24420;-28
2022/04/29 09:18:53;;;;;;;2.50;1.70;;;;;;;17.97;38.50;100515.11;103610;1303;22500;-28
2022/04/29 09:21:24;;;;;;;3.90;1.30;;;;;;;17.60;37.62;100514.13;103517;1303;22519;-25
2022/04/29 09:23:56;;;;;;;2.70;1.40;;;;;;;16.65;37.94;100517.61;103608;1303;25005;-28
2022/04/29 09:26:26;;;;;;;2.70;1.20;;;;;;;16.75;38.72;100517.40;103542;1303;22626;-29
2022/04/29 09:28:59;;;;;;;3.80;1.90;;;;;;;16.56;39.17;100515.99;103519;1303;22509;-25
2022/04/29 09:31:29;;;;;;;2.10;2.00;;;;;;;16.57;38.52;100517.48;103564;1303;25108;-28
2022/04/29 09:33:58;;;;;;;6.00;1.50;;;;;;;16.94;37.35;100512.26;103522;1303;22502;-28
2022/04/29 09:36:27;;;;;;;5.30;1.90;;;;;;;16.22;39.10;100517.27;103518;1303;22508;-24
2022/04/29 09:41:35;;;;;;;1.40;0.90;;;;;;;16.80;38.81;100510.33;103574;1303;24977;-27
2022/04/29 09:44:04;;;;;;;2.40;1.70;;;;;;;16.98;38.64;100507.73;103543;1303;23589;-24
2022/04/29 09:46:33;;;;;;;2.30;1.80;;;;;;;17.07;38.58;100504.30;103558;1303;24241;-25
2022/04/29 09:49:04;;;;;;;4.60;1.70;;;;;;;17.47;38.21;100498.88;103556;1303;23844;-25
2022/04/29 09:51:39;;;;;;;2.80;2.20;;;;;;;17.65;38.12;100498.02;103515;1303;24301;-25
2022/04/29 09:54:09;;;;;;;1.70;1.00;;;;;;;17.72;37.31;100505.60;103531;1303;24227;-24
2022/04/29 09:56:39;;;;;;;2.70;1.80;;;;;;;17.69;37.69;100498.39;103594;1303;22505;-28
2022/04/29 09:59:08;;;;;;;7.10;1.90;;;;;;;17.82;38.12;100505.11;103558;1303;23596;-28
2022/04/29 10:01:37;;;;;;;2.60;1.50;;;;;;;17.89;37.31;100502.41;103554;1303;25002;-25
2022/04/29 10:04:06;;;;;;;4.30;1.80;;;;;;;18.27;36.50;100500.32;103391;1303;24276;-31
2022/04/29 10:06:35;;;;;;;1.80;1.40;;;;;;;18.06;37.54;100501.13;103465;1303;24210;-30
2022/04/29 10:09:04;;;;;;;2.40;1.50;;;;;;;18.06;38.42;100495.86;103560;1302;22499;-31
2022/04/29 10:11:33;;;;;;;2.50;1.40;;;;;;;18.07;37.03;100492.25;103621;1303;22515;-31
2022/04/29 10:14:04;;;;;;;3.80;1.20;;;;;;;17.92;37.05;100491.30;103551;1303;24374;-27
2022/04/29 10:16:33;;;;;;;3.40;1.90;;;;;;;17.96;36.77;100493.98;103584;1303;24971;-31
2022/04/29 10:21:38;;;;;;;1.60;1.00;;;;;;;18.66;37.43;100488.89;103553;1303;24977;-28
2022/04/29 10:24:08;;;;;;;3.90;1.70;;;;;;;19.01;36.42;100485.98;103494;1303;22632;-28
2022/04/29 10:26:37;;;;;;;3.80;2.00;;;;;;;19.26;35.45;100485.81;103574;1303;23832;-28
2022/04/29 10:29:06;;;;;;;8.10;2.00;;;;;;;18.60;34.58;100482.05;103538;1303;22506;-28
2022/04/29 10:31:35;;;;;;;3.60;2.00;;;;;;;18.61;34.44;100480.34;103504;1303;24233;-28
2022/04/29 10:34:11;;;;;;;4.00;1.80;;;;;;;18.46;35.61;100475.66;103632;1303;24308;-28
2022/04/29 10:36:45;;;;;;;4.30;1.70;;;;;;;19.42;36.16;100473.19;103496;1303;24295;-24
2022/04/29 10:39:18;;;;;;;2.70;1.80;;;;;;;18.91;34.54;100474.07;103407;1303;22764;-28
2022/04/29 10:41:54;;;;;;;2.80;1.40;;;;;;;19.06;35.85;100472.33;103544;1303;22990;-25
2022/04/29 10:44:23;;;;;;;3.30;1.60;;;;;;;20.02;33.30;100469.23;103569;1303;24378;-25
2022/04/29 10:46:52;;;;;;;6.10;1.80;;;;;;;20.25;31.29;100460.80;103536;1303;22520;-25
2022/04/29 10:49:24;;;;;;;4.50;1.20;;;;;;;19.48;33.03;100467.10;103577;1303;23940;-24
2022/04/29 10:51:55;;;;;;;2.80;1.50;;;;;;;19.35;33.47;100458.83;103585;1303;22759;-25
2022/04/29 10:54:31;;;;;;;1.90;0.80;;;;;;;19.67;32.57;100458.81;103577;1303;23620;-24
2022/04/29 10:57:02;;;;;;;2.70;1.30;;;;;;;19.50;33.30;100461.66;103557;1301;24013;-28
2022/04/29 10:59:38;;;;;;;2.20;1.30;;;;;;;19.47;33.74;100462.29;103579;1303;23826;-24
2022/04/29 11:02:08;;;;;;;2.00;1.50;;;;;;;19.43;32.72;100461.87;103518;1303;23881;-25
2022/04/29 11:04:37;;;;;;;4.60;1.90;;;;;;;19.45;32.17;100463.27;103502;1303;25496;-29
2022/04/29 11:07:06;;;;;;;3.10;1.50;;;;;;;18.83;33.97;100463.66;103593;1303;23746;-25
2022/04/29 11:09:42;;;;;;;3.80;1.30;;;;;;;18.48;34.42;100455.55;103489;1303;24986;-24
2022/04/29 11:12:28;;;;;;;6.10;1.80;;;;;;;18.51;34.35;100455.23;103520;1303;23649;-28
2022/04/29 11:15:04;;;;;;;2.50;1.30;;;;;;;18.46;33.92;100453.56;103584;1303;22953;-28
2022/04/29 11:17:34;;;;;;;1.60;1.20;;;;;;;19.10;33.32;100450.23;103517;1303;24314;-28
2022/04/29 11:20:10;;;;;;;5.80;1.50;;;;;;;19.41;31.78;100446.59;103607;1303;24294;-28
2022/04/29 11:25:13;;;;;;;1.80;1.00;;;;;;;19.53;30.93;100437.34;103546;1303;24211;-31
2022/04/29 11:27:42;;;;;;;1.80;1.30;;;;;;;19.45;31.30;100440.94;103574;1303;23587;-29
2022/04/29 11:30:12;;;;;;;4.00;1.40;;;;;;;18.47;34.47;100435.77;103444;1303;23600;-25
2022/04/29 11:32:41;;;;;;;3.30;2.00;;;;;;;19.21;33.64;100433.76;103538;1303;24486;-29
2022/04/29 11:35:10;;;;;;;1.50;1.10;;;;;;;20.06;31.60;100426.11;103580;1303;23837;-28
2022/04/29 11:37:39;;;;;;;1.30;0.70;;;;;;;19.70;31.66;100425.73;103530;1303;24463;-28
2022/04/29 11:40:09;;;;;;;3.00;1.20;;;;;;;20.13;32.53;100423.71;103589;1303;24393;-28
2022/04/29 11:42:38;;;;;;;1.30;0.60;;;;;;;19.72;31.37;100431.34;103477;1303;24271;-25
2022/04/29 11:45:08;;;;;;;3.40;1.20;;;;;;;19.39;31.35;100426.21;103530;1303;24311;-24
2022/04/29 11:47:37;;;;;;;2.40;1.00;;;;;;;18.78;30.50;100428.67;103553;1302;23599;-25
2022/04/29 11:50:07;;;;;;;4.00;1.90;;;;;;;19.58;31.17;100418.95;103555;1302;22517;-24
2022/04/29 11:52:39;;;;;;;1.70;1.20;;;;;;;19.88;31.21;100419.94;103580;1303;24367;-24
2022/04/29 11:55:13;;;;;;;1.40;0.90;;;;;;;20.11;30.32;100414.75;103588;1301;22499;-24
2022/04/29 11:57:45;;;;;;;4.50;1.80;;;;;;;18.75;32.24;100418.84;103514;1303;23826;-25